Time;durP1;ratioP1;P1;durP2;ratioP2;P2;SDS_P1;SDS_P2;PMS_P1;PMS_P2;Temp;Humidity;BMP_temperature;BMP_pressure;BME280_temperature;BME280_humidity;BME280_pressure;Samples;Min_cycle;Max_cycle;Signal;HPM_P1;HPM_P2
2022/09/13 00:01:38;;;;;;;;;;;;;;;;;;5017654;28;19913;-31
2022/09/13 00:04:04;;;;;;;;;;;;;;;;;;5017187;28;20229;-30
2022/09/13 00:06:30;;;;;;;;;;;;;;;;;;5017333;28;19976;-31
2022/09/13 00:08:57;;;;;;;;;;;;;;;;;;5017558;28;19910;-31
2022/09/13 00:11:22;;;;;;;;;;;;;;;;;;5017456;28;19961;-31
2022/09/13 00:13:48;;;;;;;;;;;;;;;;;;5017715;28;20249;-31
2022/09/13 00:16:14;;;;;;;;;;;;;;;;;;5017158;28;20122;-31
2022/09/13 00:18:40;;;;;;;;;;;;;;;;;;5017374;28;19914;-30
2022/09/13 00:21:06;;;;;;;;;;;;;;;;;;5016474;28;19948;-30
2022/09/13 00:23:32;;;;;;;;;;;;;;;;;;5016971;28;19979;-31
2022/09/13 00:25:58;;;;;;;;;;;;;;;;;;5017221;28;19924;-31
2022/09/13 00:28:24;;;;;;;;;;;;;;;;;;5016926;28;19910;-31
2022/09/13 00:30:51;;;;;;;;;;;;;;;;;;5016878;28;20280;-31
2022/09/13 00:33:17;;;;;;;;;;;;;;;;;;5017035;28;19913;-31
2022/09/13 00:35:43;;;;;;;;;;;;;;;;;;5017121;28;20257;-31
2022/09/13 00:38:09;;;;;;;;;;;;;;;;;;5016790;28;20253;-31
2022/09/13 00:40:35;;;;;;;;;;;;;;;;;;5016743;28;19913;-31
2022/09/13 00:43:01;;;;;;;;;;;;;;;;;;5016632;28;20276;-30
2022/09/13 00:45:27;;;;;;;;;;;;;;;;;;5016967;28;19949;-30
2022/09/13 00:47:52;;;;;;;;;;;;;;;;;;5016586;28;20305;-31
2022/09/13 00:50:18;;;;;;;;;;;;;;;;;;5016498;28;19924;-30
2022/09/13 00:52:44;;;;;;;;;;;;;;;;;;5016459;28;19914;-30
2022/09/13 00:55:10;;;;;;;;;;;;;;;;;;5016438;28;19925;-30
2022/09/13 00:57:36;;;;;;;;;;;;;;;;;;5016394;28;19910;-30
2022/09/13 01:00:09;;;;;;;;;;;;;;;;;;5016940;28;19929;-31
2022/09/13 01:02:34;;;;;;;;;;;;;;;;;;5016059;28;19918;-31
2022/09/13 01:05:00;;;;;;;;;;;;;;;;;;5016179;28;19921;-30
2022/09/13 01:07:26;;;;;;;;;;;;;;;;;;5016509;28;19921;-30
2022/09/13 01:09:52;;;;;;;;;;;;;;;;;;5016090;28;19920;-31
2022/09/13 01:12:19;;;;;;;;;;;;;;;;;;5016349;28;19925;-30
2022/09/13 01:14:45;;;;;;;;;;;;;;;;;;5016397;28;19921;-30
2022/09/13 01:17:11;;;;;;;;;;;;;;;;;;5016045;28;20349;-30
2022/09/13 01:19:37;;;;;;;;;;;;;;;;;;5016314;28;19913;-31
2022/09/13 01:22:03;;;;;;;;;;;;;;;;;;5015899;28;19971;-31
2022/09/13 01:24:29;;;;;;;;;;;;;;;;;;5016994;28;19909;-30
2022/09/13 01:26:55;;;;;;;;;;;;;;;;;;5015879;28;19944;-31
2022/09/13 01:29:21;;;;;;;;;;;;;;;;;;5015903;28;19956;-30
2022/09/13 01:31:47;;;;;;;;;;;;;;;;;;5015593;28;19924;-31
2022/09/13 01:34:13;;;;;;;;;;;;;;;;;;5014937;28;19955;-32
2022/09/13 01:36:39;;;;;;;;;;;;;;;;;;5016060;28;20264;-31
2022/09/13 01:39:05;;;;;;;;;;;;;;;;;;5016317;28;20007;-31
2022/09/13 01:41:32;;;;;;;;;;;;;;;;;;5015914;28;19924;-31
2022/09/13 01:43:59;;;;;;;;;;;;;;;;;;5015546;28;19914;-31
2022/09/13 01:46:25;;;;;;;;;;;;;;;;;;5016700;28;19913;-31
2022/09/13 01:48:51;;;;;;;;;;;;;;;;;;5015824;28;20396;-31
2022/09/13 01:51:17;;;;;;;;;;;;;;;;;;5015447;28;19917;-32
2022/09/13 01:53:43;;;;;;;;;;;;;;;;;;5015426;28;19910;-31
2022/09/13 01:56:09;;;;;;;;;;;;;;;;;;5016042;28;19914;-31
2022/09/13 01:58:35;;;;;;;;;;;;;;;;;;5015725;28;19976;-31
2022/09/13 02:01:02;;;;;;;;;;;;;;;;;;5015657;28;19952;-32
2022/09/13 02:03:28;;;;;;;;;;;;;;;;;;5015059;28;19929;-31
2022/09/13 02:05:54;;;;;;;;;;;;;;;;;;5015599;28;19988;-31
2022/09/13 02:08:20;;;;;;;;;;;;;;;;;;5015387;28;20367;-31
2022/09/13 02:10:46;;;;;;;;;;;;;;;;;;5015472;28;19953;-31
2022/09/13 02:13:12;;;;;;;;;;;;;;;;;;5015243;28;20355;-31
2022/09/13 02:15:38;;;;;;;;;;;;;;;;;;5015827;28;20337;-31
2022/09/13 02:18:05;;;;;;;;;;;;;;;;;;5015226;28;19913;-31
2022/09/13 02:20:31;;;;;;;;;;;;;;;;;;5015496;28;19920;-31
2022/09/13 02:22:57;;;;;;;;;;;;;;;;;;5015369;28;20000;-31
2022/09/13 02:25:23;;;;;;;;;;;;;;;;;;5015174;28;20308;-31
2022/09/13 02:27:50;;;;;;;;;;;;;;;;;;5015090;28;20327;-31
2022/09/13 02:30:16;;;;;;;;;;;;;;;;;;5015338;28;20000;-31
2022/09/13 02:32:43;;;;;;;;;;;;;;;;;;5015320;28;19913;-31
2022/09/13 02:35:09;;;;;;;;;;;;;;;;;;5015341;28;19992;-31
2022/09/13 02:37:35;;;;;;;;;;;;;;;;;;5015668;28;20330;-31
2022/09/13 02:40:01;;;;;;;;;;;;;;;;;;5015062;28;19975;-31
2022/09/13 02:42:27;;;;;;;;;;;;;;;;;;5015281;28;19976;-31
2022/09/13 02:44:53;;;;;;;;;;;;;;;;;;5017013;28;20282;-31
2022/09/13 02:47:21;;;;;;;;;;;;;;;;;;5019710;28;20008;-31
2022/09/13 02:49:50;;;;;;;;;;;;;;;;;;5018773;28;19914;-31
2022/09/13 02:52:16;;;;;;;;;;;;;;;;;;5017783;28;20367;-31
2022/09/13 02:54:42;;;;;;;;;;;;;;;;;;5018987;28;20248;-32
2022/09/13 02:57:08;;;;;;;;;;;;;;;;;;5018957;28;19913;-31
2022/09/13 02:59:35;;;;;;;;;;;;;;;;;;5018888;28;20344;-31
2022/09/13 03:02:01;;;;;;;;;;;;;;;;;;5019196;28;19914;-31
2022/09/13 03:04:27;;;;;;;;;;;;;;;;;;5019071;28;19964;-31
2022/09/13 03:06:53;;;;;;;;;;;;;;;;;;5018747;28;19925;-31
2022/09/13 03:09:19;;;;;;;;;;;;;;;;;;5018751;28;19958;-31
2022/09/13 03:11:45;;;;;;;;;;;;;;;;;;5018519;28;19928;-31
2022/09/13 03:14:11;;;;;;;;;;;;;;;;;;5018678;28;19940;-31
2022/09/13 03:16:37;;;;;;;;;;;;;;;;;;5018276;28;20233;-31
2022/09/13 03:19:03;;;;;;;;;;;;;;;;;;5018530;28;20015;-31
2022/09/13 03:21:29;;;;;;;;;;;;;;;;;;5018499;28;20273;-31
2022/09/13 03:23:55;;;;;;;;;;;;;;;;;;5018084;28;20360;-31
2022/09/13 03:26:21;;;;;;;;;;;;;;;;;;5018413;28;19916;-32
2022/09/13 03:28:47;;;;;;;;;;;;;;;;;;5018344;28;20317;-32
2022/09/13 03:31:13;;;;;;;;;;;;;;;;;;5017980;28;19914;-32
2022/09/13 03:33:39;;;;;;;;;;;;;;;;;;5017960;28;19917;-31
2022/09/13 03:36:05;;;;;;;;;;;;;;;;;;5018285;28;20307;-32
2022/09/13 03:38:31;;;;;;;;;;;;;;;;;;5017986;28;19925;-31
2022/09/13 03:40:57;;;;;;;;;;;;;;;;;;5017854;28;19913;-31
2022/09/13 03:43:23;;;;;;;;;;;;;;;;;;5017825;28;19914;-31
2022/09/13 03:45:49;;;;;;;;;;;;;;;;;;5018352;28;19956;-31
2022/09/13 03:48:15;;;;;;;;;;;;;;;;;;5017708;28;19917;-31
2022/09/13 03:50:41;;;;;;;;;;;;;;;;;;5017636;28;19921;-31
2022/09/13 03:53:07;;;;;;;;;;;;;;;;;;5017657;28;20345;-31
2022/09/13 03:55:33;;;;;;;;;;;;;;;;;;5016971;28;19960;-31
2022/09/13 03:57:59;;;;;;;;;;;;;;;;;;5017499;28;19940;-31
2022/09/13 04:00:25;;;;;;;;;;;;;;;;;;5018337;28;19917;-31
2022/09/13 04:02:51;;;;;;;;;;;;;;;;;;5016982;28;19922;-31
2022/09/13 04:05:17;;;;;;;;;;;;;;;;;;5017330;28;19921;-31
2022/09/13 04:07:43;;;;;;;;;;;;;;;;;;5017193;28;19914;-31
2022/09/13 04:10:09;;;;;;;;;;;;;;;;;;5017125;28;19921;-31
2022/09/13 04:12:35;;;;;;;;;;;;;;;;;;5017232;28;20323;-32
2022/09/13 04:15:01;;;;;;;;;;;;;;;;;;5017428;28;19917;-31
2022/09/13 04:17:27;;;;;;;;;;;;;;;;;;5017181;28;20329;-31
2022/09/13 04:19:53;;;;;;;;;;;;;;;;;;5017493;28;20336;-31
2022/09/13 04:22:19;;;;;;;;;;;;;;;;;;5016509;28;19913;-31
2022/09/13 04:24:45;;;;;;;;;;;;;;;;;;5017322;28;19963;-31
2022/09/13 04:27:11;;;;;;;;;;;;;;;;;;5016891;28;19914;-31
2022/09/13 04:29:37;;;;;;;;;;;;;;;;;;5016429;28;19910;-31
2022/09/13 04:32:03;;;;;;;;;;;;;;;;;;5016349;28;19924;-31
2022/09/13 04:34:29;;;;;;;;;;;;;;;;;;5016829;28;19913;-31
2022/09/13 04:36:55;;;;;;;;;;;;;;;;;;5016536;28;20253;-31
2022/09/13 04:39:21;;;;;;;;;;;;;;;;;;5016215;28;19920;-31
2022/09/13 04:41:47;;;;;;;;;;;;;;;;;;5016121;28;19913;-31
2022/09/13 04:44:13;;;;;;;;;;;;;;;;;;5016850;28;19910;-31
2022/09/13 04:46:39;;;;;;;;;;;;;;;;;;5016239;28;19920;-31
2022/09/13 04:49:05;;;;;;;;;;;;;;;;;;5016223;28;19936;-31
2022/09/13 04:51:30;;;;;;;;;;;;;;;;;;5016026;28;19961;-31
2022/09/13 04:53:56;;;;;;;;;;;;;;;;;;5016540;28;19910;-31
2022/09/13 04:56:22;;;;;;;;;;;;;;;;;;5015998;28;19914;-31
2022/09/13 04:58:48;;;;;;;;;;;;;;;;;;5016509;28;20391;-31
2022/09/13 05:01:14;;;;;;;;;;;;;;;;;;5015895;28;19918;-32
2022/09/13 05:03:40;;;;;;;;;;;;;;;;;;5015772;28;19965;-32
2022/09/13 05:06:07;;;;;;;;;;;;;;;;;;5016153;28;20379;-31
2022/09/13 05:08:33;;;;;;;;;;;;;;;;;;5015889;28;20015;-31
2022/09/13 05:10:59;;;;;;;;;;;;;;;;;;5015780;28;20368;-31
2022/09/13 05:13:25;;;;;;;;;;;;;;;;;;5015624;28;19917;-31
2022/09/13 05:15:51;;;;;;;;;;;;;;;;;;5015689;28;20256;-31
2022/09/13 05:18:17;;;;;;;;;;;;;;;;;;5015970;28;19913;-31
2022/09/13 05:20:43;;;;;;;;;;;;;;;;;;5015592;28;20363;-31
2022/09/13 05:23:09;;;;;;;;;;;;;;;;;;5015473;28;19944;-31
2022/09/13 05:25:35;;;;;;;;;;;;;;;;;;5016109;28;19915;-31
2022/09/13 05:28:01;;;;;;;;;;;;;;;;;;5015417;28;20345;-31
2022/09/13 05:30:27;;;;;;;;;;;;;;;;;;5015330;28;19921;-31
2022/09/13 05:32:53;;;;;;;;;;;;;;;;;;5015279;28;19925;-31
2022/09/13 05:35:19;;;;;;;;;;;;;;;;;;5015365;28;19920;-31
2022/09/13 05:37:45;;;;;;;;;;;;;;;;;;5015557;28;19913;-31
2022/09/13 05:40:11;;;;;;;;;;;;;;;;;;5015195;28;19957;-31
2022/09/13 05:42:37;;;;;;;;;;;;;;;;;;5015372;28;19921;-31
2022/09/13 05:45:04;;;;;;;;;;;;;;;;;;5015759;28;20331;-31
2022/09/13 05:47:30;;;;;;;;;;;;;;;;;;5015455;28;19913;-31
2022/09/13 05:49:56;;;;;;;;;;;;;;;;;;5015148;28;20396;-31
2022/09/13 05:52:22;;;;;;;;;;;;;;;;;;5015527;28;19914;-31
2022/09/13 05:54:48;;;;;;;;;;;;;;;;;;5015081;28;19940;-31
2022/09/13 05:57:14;;;;;;;;;;;;;;;;;;5015206;28;19910;-32
2022/09/13 05:59:40;;;;;;;;;;;;;;;;;;5015083;28;19914;-32
2022/09/13 06:02:06;;;;;;;;;;;;;;;;;;5015034;28;19914;-31
2022/09/13 06:04:33;;;;;;;;;;;;;;;;;;5015202;28;20256;-31
2022/09/13 06:06:59;;;;;;;;;;;;;;;;;;5014842;28;19920;-31
2022/09/13 06:09:25;;;;;;;;;;;;;;;;;;5014971;28;19913;-31
2022/09/13 06:11:51;;;;;;;;;;;;;;;;;;5014686;28;20063;-31
2022/09/13 06:14:17;;;;;;;;;;;;;;;;;;5015358;28;19920;-31
2022/09/13 06:16:43;;;;;;;;;;;;;;;;;;5014829;28;19910;-31
2022/09/13 06:19:09;;;;;;;;;;;;;;;;;;5017565;28;19993;-31
2022/09/13 06:21:35;;;;;;;;;;;;;;;;;;5021819;28;19917;-31
2022/09/13 06:24:01;;;;;;;;;;;;;;;;;;5021364;28;19987;-31
2022/09/13 06:26:27;;;;;;;;;;;;;;;;;;5021539;28;20311;-31
2022/09/13 06:28:53;;;;;;;;;;;;;;;;;;5021249;28;19976;-31
2022/09/13 06:31:19;;;;;;;;;;;;;;;;;;5021240;28;19918;-31
2022/09/13 06:33:45;;;;;;;;;;;;;;;;;;5020918;28;19996;-31
2022/09/13 06:36:11;;;;;;;;;;;;;;;;;;5021785;28;20333;-31
2022/09/13 06:38:37;;;;;;;;;;;;;;;;;;5021018;28;19932;-31
2022/09/13 06:41:03;;;;;;;;;;;;;;;;;;5021410;28;19958;-31
2022/09/13 06:43:29;;;;;;;;;;;;;;;;;;5020932;28;19919;-32
2022/09/13 06:45:55;;;;;;;;;;;;;;;;;;5021069;28;19913;-31
2022/09/13 06:48:21;;;;;;;;;;;;;;;;;;5020942;28;19996;-31
2022/09/13 06:50:47;;;;;;;;;;;;;;;;;;5020961;28;19972;-31
2022/09/13 06:53:13;;;;;;;;;;;;;;;;;;5020902;28;20008;-31
2022/09/13 06:55:39;;;;;;;;;;;;;;;;;;5021184;28;19909;-31
2022/09/13 06:58:05;;;;;;;;;;;;;;;;;;5021113;28;19956;-31
2022/09/13 07:00:31;;;;;;;;;;;;;;;;;;5021121;28;19913;-31
2022/09/13 07:02:57;;;;;;;;;;;;;;;;;;5020629;28;20353;-31
2022/09/13 07:05:23;;;;;;;;;;;;;;;;;;5021136;28;20360;-32
2022/09/13 07:07:49;;;;;;;;;;;;;;;;;;5020946;28;19925;-31
2022/09/13 07:10:15;;;;;;;;;;;;;;;;;;5020836;28;19917;-32
2022/09/13 07:12:41;;;;;;;;;;;;;;;;;;5021121;28;19972;-31
2022/09/13 07:15:07;;;;;;;;;;;;;;;;;;5021095;28;19983;-31
2022/09/13 07:17:33;;;;;;;;;;;;;;;;;;5020785;28;20010;-31
2022/09/13 07:19:59;;;;;;;;;;;;;;;;;;5021107;28;19909;-31
2022/09/13 07:22:26;;;;;;;;;;;;;;;;;;5019855;28;19914;-31
2022/09/13 07:24:52;;;;;;;;;;;;;;;;;;5021164;28;19909;-31
2022/09/13 07:27:18;;;;;;;;;;;;;;;;;;5020918;28;19914;-31
2022/09/13 07:29:44;;;;;;;;;;;;;;;;;;5020635;28;19909;-32
2022/09/13 07:32:10;;;;;;;;;;;;;;;;;;5017720;28;19924;-31
2022/09/13 07:34:36;;;;;;;;;;;;;;;;;;5017766;28;19917;-31
2022/09/13 07:37:02;;;;;;;;;;;;;;;;;;5017614;28;19920;-31
2022/09/13 07:39:28;;;;;;;;;;;;;;;;;;5017978;28;19952;-31
2022/09/13 07:41:54;;;;;;;;;;;;;;;;;;5018031;28;19935;-31
2022/09/13 07:44:20;;;;;;;;;;;;;;;;;;5017784;28;20356;-31
2022/09/13 07:46:46;;;;;;;;;;;;;;;;;;5018315;28;19920;-31
2022/09/13 07:49:12;;;;;;;;;;;;;;;;;;5017701;28;19979;-31
2022/09/13 07:51:38;;;;;;;;;;;;;;;;;;5017710;28;20264;-31
2022/09/13 07:54:04;;;;;;;;;;;;;;;;;;5017754;28;19952;-31
2022/09/13 07:56:30;;;;;;;;;;;;;;;;;;5016592;28;20292;-31
2022/09/13 07:58:56;;;;;;;;;;;;;;;;;;5017568;28;19917;-31
2022/09/13 08:01:22;;;;;;;;;;;;;;;;;;5017777;28;19972;-31
2022/09/13 08:03:48;;;;;;;;;;;;;;;;;;5017282;28;19925;-31
2022/09/13 08:06:14;;;;;;;;;;;;;;;;;;5017549;28;19923;-31
2022/09/13 08:08:40;;;;;;;;;;;;;;;;;;5017747;28;19910;-31
2022/09/13 08:11:06;;;;;;;;;;;;;;;;;;5017185;28;19917;-31
2022/09/13 08:13:32;;;;;;;;;;;;;;;;;;5017144;28;19916;-31
2022/09/13 08:15:58;;;;;;;;;;;;;;;;;;5017627;28;19917;-31
2022/09/13 08:18:24;;;;;;;;;;;;;;;;;;5017509;28;19933;-32
2022/09/13 08:20:50;;;;;;;;;;;;;;;;;;5017074;28;20260;-31
2022/09/13 08:23:16;;;;;;;;;;;;;;;;;;5017034;28;19910;-31
2022/09/13 08:25:42;;;;;;;;;;;;;;;;;;5017194;28;19913;-31
2022/09/13 08:28:08;;;;;;;;;;;;;;;;;;5016863;28;19910;-32
2022/09/13 08:30:35;;;;;;;;;;;;;;;;;;5017050;28;20276;-31
2022/09/13 08:33:01;;;;;;;;;;;;;;;;;;5017341;28;19956;-31
2022/09/13 08:35:27;;;;;;;;;;;;;;;;;;5017262;28;20225;-31
2022/09/13 08:37:53;;;;;;;;;;;;;;;;;;5016731;28;19925;-31
2022/09/13 08:40:19;;;;;;;;;;;;;;;;;;5016789;28;19910;-31
2022/09/13 08:42:45;;;;;;;;;;;;;;;;;;5016083;28;19964;-32
2022/09/13 08:45:12;;;;;;;;;;;;;;;;;;5016555;28;19914;-32
2022/09/13 08:47:38;;;;;;;;;;;;;;;;;;5016700;28;19910;-31
2022/09/13 08:50:04;;;;;;;;;;;;;;;;;;5016441;28;19921;-31
2022/09/13 08:52:30;;;;;;;;;;;;;;;;;;5016544;28;19916;-31
2022/09/13 08:54:56;;;;;;;;;;;;;;;;;;5016698;28;19914;-31
2022/09/13 08:57:22;;;;;;;;;;;;;;;;;;5015488;28;19914;-31
2022/09/13 08:59:50;;;;;;;;;;;;;;;;;;5016361;28;20023;-31
2022/09/13 09:02:16;;;;;;;;;;;;;;;;;;5016253;28;19948;-31
2022/09/13 09:04:42;;;;;;;;;;;;;;;;;;5016583;28;19991;-31
2022/09/13 09:07:08;;;;;;;;;;;;;;;;;;5016782;28;19913;-31
2022/09/13 09:09:34;;;;;;;;;;;;;;;;;;5015411;28;19921;-31
2022/09/13 09:12:00;;;;;;;;;;;;;;;;;;5015994;28;19932;-31
2022/09/13 09:14:27;;;;;;;;;;;;;;;;;;5016596;28;19945;-32
2022/09/13 09:16:53;;;;;;;;;;;;;;;;;;5016222;28;19932;-31
2022/09/13 09:19:19;;;;;;;;;;;;;;;;;;5016722;28;19909;-31
2022/09/13 09:21:45;;;;;;;;;;;;;;;;;;5015954;28;20364;-31
2022/09/13 09:24:10;;;;;;;;;;;;;;;;;;5015870;28;19914;-31
2022/09/13 09:26:36;;;;;;;;;;;;;;;;;;5016121;28;19971;-31
2022/09/13 09:29:03;;;;;;;;;;;;;;;;;;5016078;28;19924;-31
2022/09/13 09:31:28;;;;;;;;;;;;;;;;;;5016002;28;20398;-31
2022/09/13 09:33:54;;;;;;;;;;;;;;;;;;5016047;28;19913;-30
2022/09/13 09:36:20;;;;;;;;;;;;;;;;;;5015666;28;20242;-30
2022/09/13 09:38:47;;;;;;;;;;;;;;;;;;5016027;28;19917;-31
2022/09/13 09:41:13;;;;;;;;;;;;;;;;;;5015871;28;19933;-30
2022/09/13 09:43:39;;;;;;;;;;;;;;;;;;5015668;28;20278;-31
2022/09/13 09:46:05;;;;;;;;;;;;;;;;;;5015397;28;19973;-31
2022/09/13 09:48:31;;;;;;;;;;;;;;;;;;5015866;28;20004;-31
2022/09/13 09:50:57;;;;;;;;;;;;;;;;;;5015403;28;20449;-31
2022/09/13 09:53:27;;;;;;;;;;;;;;;;;;5014696;28;19917;-30
2022/09/13 09:55:53;;;;;;;;;;;;;;;;;;5015233;28;19920;-30
2022/09/13 09:58:19;;;;;;;;;;;;;;;;;;5015708;28;19921;-31
2022/09/13 10:00:45;;;;;;;;;;;;;;;;;;5015827;28;20252;-31
2022/09/13 10:03:11;;;;;;;;;;;;;;;;;;5015395;28;19921;-31
2022/09/13 10:05:37;;;;;;;;;;;;;;;;;;5015621;28;19914;-31
2022/09/13 10:08:04;;;;;;;;;;;;;;;;;;5015219;28;19996;-31
2022/09/13 10:10:31;;;;;;;;;;;;;;;;;;5015463;28;19918;-31
2022/09/13 10:12:58;;;;;;;;;;;;;;;;;;5015528;28;20051;-32
2022/09/13 10:15:24;;;;;;;;;;;;;;;;;;5015499;28;19921;-31
2022/09/13 10:17:50;;;;;;;;;;;;;;;;;;5015437;28;19909;-32
2022/09/13 10:20:16;;;;;;;;;;;;;;;;;;5015718;28;19914;-32
2022/09/13 10:22:42;;;;;;;;;;;;;;;;;;5015289;28;19918;-31
2022/09/13 10:25:08;;;;;;;;;;;;;;;;;;5015114;28;19996;-31
2022/09/13 10:27:34;;;;;;;;;;;;;;;;;;5015390;28;19967;-31
2022/09/13 10:30:00;;;;;;;;;;;;;;;;;;5015317;28;20248;-32
2022/09/13 10:32:26;;;;;;;;;;;;;;;;;;5014932;28;20403;-31
2022/09/13 10:34:52;;;;;;;;;;;;;;;;;;5015101;28;19932;-31
2022/09/13 10:37:19;;;;;;;;;;;;;;;;;;5015431;28;19914;-31
2022/09/13 10:39:45;;;;;;;;;;;;;;;;;;5015009;28;19913;-31
2022/09/13 10:42:12;;;;;;;;;;;;;;;;;;5014869;28;19924;-31
2022/09/13 10:44:38;;;;;;;;;;;;;;;;;;5015517;28;19925;-31
2022/09/13 10:47:04;;;;;;;;;;;;;;;;;;5014917;28;19913;-31
2022/09/13 10:49:29;;;;;;;;;;;;;;;;;;5013954;28;20364;-31
2022/09/13 10:51:55;;;;;;;;;;;;;;;;;;5014699;28;19913;-31
2022/09/13 10:54:21;;;;;;;;;;;;;;;;;;5014803;28;19914;-31
2022/09/13 10:56:47;;;;;;;;;;;;;;;;;;5013655;28;19909;-31
2022/09/13 10:59:14;;;;;;;;;;;;;;;;;;5014730;28;19975;-32
2022/09/13 11:01:40;;;;;;;;;;;;;;;;;;5015053;28;19920;-31
2022/09/13 11:04:06;;;;;;;;;;;;;;;;;;5013646;28;19925;-31
2022/09/13 11:06:32;;;;;;;;;;;;;;;;;;5017736;28;20412;-31
2022/09/13 11:08:57;;;;;;;;;;;;;;;;;;5018314;28;19972;-31
2022/09/13 11:11:23;;;;;;;;;;;;;;;;;;5017068;28;19979;-31
2022/09/13 11:13:51;;;;;;;;;;;;;;;;;;5018236;28;19966;-31
2022/09/13 11:16:17;;;;;;;;;;;;;;;;;;5018314;28;19921;-31
2022/09/13 11:18:43;;;;;;;;;;;;;;;;;;5018289;28;19921;-32
2022/09/13 11:21:09;;;;;;;;;;;;;;;;;;5018218;28;19936;-31
2022/09/13 11:23:35;;;;;;;;;;;;;;;;;;5018020;28;19909;-31
2022/09/13 11:26:01;;;;;;;;;;;;;;;;;;5018036;28;19922;-31
2022/09/13 11:28:27;;;;;;;;;;;;;;;;;;5018347;28;19949;-31
2022/09/13 11:30:53;;;;;;;;;;;;;;;;;;5017947;28;19922;-31
2022/09/13 11:33:19;;;;;;;;;;;;;;;;;;5017804;28;20308;-31
2022/09/13 11:35:45;;;;;;;;;;;;;;;;;;5018350;28;19913;-31
2022/09/13 11:38:11;;;;;;;;;;;;;;;;;;5018198;28;19913;-31
2022/09/13 11:40:36;;;;;;;;;;;;;;;;;;5017821;28;19971;-31
2022/09/13 11:43:02;;;;;;;;;;;;;;;;;;5017670;28;19909;-31
2022/09/13 11:45:28;;;;;;;;;;;;;;;;;;5018060;28;20363;-31
2022/09/13 11:47:54;;;;;;;;;;;;;;;;;;5018055;28;19913;-31
2022/09/13 11:50:20;;;;;;;;;;;;;;;;;;5017650;28;20256;-32
2022/09/13 11:52:47;;;;;;;;;;;;;;;;;;5017524;28;19910;-31
2022/09/13 11:55:13;;;;;;;;;;;;;;;;;;5017603;28;20006;-31
2022/09/13 11:57:38;;;;;;;;;;;;;;;;;;5017834;28;19955;-31
2022/09/13 12:00:06;;;;;;;;;;;;;;;;;;5017457;28;19909;-31
2022/09/13 12:02:32;;;;;;;;;;;;;;;;;;5017365;28;20331;-31
2022/09/13 12:04:58;;;;;;;;;;;;;;;;;;5017765;28;19913;-31
2022/09/13 12:07:24;;;;;;;;;;;;;;;;;;5017348;28;19969;-31
2022/09/13 12:09:50;;;;;;;;;;;;;;;;;;5017484;28;19921;-31
2022/09/13 12:12:17;;;;;;;;;;;;;;;;;;5017229;28;20356;-31
2022/09/13 12:14:44;;;;;;;;;;;;;;;;;;5017195;28;19916;-32
2022/09/13 12:17:10;;;;;;;;;;;;;;;;;;5016443;28;20260;-31
2022/09/13 12:19:36;;;;;;;;;;;;;;;;;;5017473;28;19909;-31
2022/09/13 12:22:02;;;;;;;;;;;;;;;;;;5017054;28;19960;-31
2022/09/13 12:24:28;;;;;;;;;;;;;;;;;;5017076;28;19984;-31
2022/09/13 12:26:54;;;;;;;;;;;;;;;;;;5017108;28;20359;-31
2022/09/13 12:29:20;;;;;;;;;;;;;;;;;;5017309;28;19997;-31
2022/09/13 12:31:46;;;;;;;;;;;;;;;;;;5017114;28;19928;-31
2022/09/13 12:34:12;;;;;;;;;;;;;;;;;;5017153;28;19910;-31
2022/09/13 12:36:38;;;;;;;;;;;;;;;;;;5017043;28;19992;-31
2022/09/13 12:39:04;;;;;;;;;;;;;;;;;;5016872;28;19972;-31
2022/09/13 12:41:29;;;;;;;;;;;;;;;;;;5016802;28;19963;-31
2022/09/13 12:43:55;;;;;;;;;;;;;;;;;;5016799;28;19968;-31
2022/09/13 12:46:21;;;;;;;;;;;;;;;;;;5017158;28;19952;-31
2022/09/13 12:48:49;;;;;;;;;;;;;;;;;;5016536;28;20058;-31
2022/09/13 12:51:15;;;;;;;;;;;;;;;;;;5016530;28;19960;-31
2022/09/13 12:53:41;;;;;;;;;;;;;;;;;;5016253;28;19940;-31
2022/09/13 12:56:06;;;;;;;;;;;;;;;;;;5016144;28;20257;-31
2022/09/13 12:58:33;;;;;;;;;;;;;;;;;;5016434;28;19976;-31
2022/09/13 13:00:59;;;;;;;;;;;;;;;;;;5016147;28;19921;-31
2022/09/13 13:03:25;;;;;;;;;;;;;;;;;;5015888;28;19921;-31
2022/09/13 13:05:51;;;;;;;;;;;;;;;;;;5016087;28;19932;-31
2022/09/13 13:08:17;;;;;;;;;;;;;;;;;;5016773;28;19913;-31
2022/09/13 13:10:43;;;;;;;;;;;;;;;;;;5016065;28;19917;-31
2022/09/13 13:13:09;;;;;;;;;;;;;;;;;;5015834;28;19909;-31
2022/09/13 13:15:35;;;;;;;;;;;;;;;;;;5015821;28;19913;-31
2022/09/13 13:18:03;;;;;;;;;;;;;;;;;;5015845;28;20344;-31
2022/09/13 13:20:29;;;;;;;;;;;;;;;;;;5015791;28;19948;-31
2022/09/13 13:22:55;;;;;;;;;;;;;;;;;;5015649;28;19914;-31
2022/09/13 13:25:21;;;;;;;;;;;;;;;;;;5016793;28;19979;-31
2022/09/13 13:27:50;;;;;;;;;;;;;;;;;;5015880;28;20253;-31
2022/09/13 13:30:16;;;;;;;;;;;;;;;;;;5015684;28;20012;-32
2022/09/13 13:32:42;;;;;;;;;;;;;;;;;;5015863;28;19943;-31
2022/09/13 13:35:08;;;;;;;;;;;;;;;;;;5015905;28;19982;-30
2022/09/13 13:37:34;;;;;;;;;;;;;;;;;;5016162;28;19913;-31
2022/09/13 13:40:00;;;;;;;;;;;;;;;;;;5015817;28;19941;-31
2022/09/13 13:42:26;;;;;;;;;;;;;;;;;;5015291;28;20345;-31
2022/09/13 13:44:52;;;;;;;;;;;;;;;;;;5015417;28;19945;-31
2022/09/13 13:47:18;;;;;;;;;;;;;;;;;;5015392;28;19909;-31
2022/09/13 13:49:47;;;;;;;;;;;;;;;;;;5016022;28;19925;-31
2022/09/13 13:52:14;;;;;;;;;;;;;;;;;;5015346;28;19917;-31
2022/09/13 13:54:40;;;;;;;;;;;;;;;;;;5015490;28;19918;-32
2022/09/13 13:57:06;;;;;;;;;;;;;;;;;;5015207;28;19940;-31
2022/09/13 13:59:32;;;;;;;;;;;;;;;;;;5015340;28;19916;-31
2022/09/13 14:02:00;;;;;;;;;;;;;;;;;;5015514;28;20000;-31
2022/09/13 14:04:26;;;;;;;;;;;;;;;;;;5015065;28;19921;-31
2022/09/13 14:06:52;;;;;;;;;;;;;;;;;;5015245;28;20296;-30
2022/09/13 14:09:18;;;;;;;;;;;;;;;;;;5014324;28;20004;-31
2022/09/13 14:11:45;;;;;;;;;;;;;;;;;;5014971;28;20000;-31
2022/09/13 14:14:11;;;;;;;;;;;;;;;;;;5015079;28;19913;-31
2022/09/13 14:16:37;;;;;;;;;;;;;;;;;;5015400;28;19909;-32
2022/09/13 14:19:05;;;;;;;;;;;;;;;;;;5015346;28;20194;-32
2022/09/13 14:21:31;;;;;;;;;;;;;;;;;;5014951;28;19916;-31
2022/09/13 14:23:57;;;;;;;;;;;;;;;;;;5014998;28;19956;-31
2022/09/13 14:26:23;;;;;;;;;;;;;;;;;;5015026;28;19912;-32
2022/09/13 14:28:49;;;;;;;;;;;;;;;;;;5015052;28;19921;-31
2022/09/13 14:31:15;;;;;;;;;;;;;;;;;;5014869;28;19924;-31
2022/09/13 14:33:41;;;;;;;;;;;;;;;;;;5015046;28;19910;-30
2022/09/13 14:36:07;;;;;;;;;;;;;;;;;;5015034;28;19914;-31
2022/09/13 14:38:34;;;;;;;;;;;;;;;;;;5015297;28;20019;-31
2022/09/13 14:41:00;;;;;;;;;;;;;;;;;;5018019;28;19913;-31
2022/09/13 14:43:26;;;;;;;;;;;;;;;;;;5018903;28;19935;-31
2022/09/13 14:45:52;;;;;;;;;;;;;;;;;;5018836;28;19922;-31
2022/09/13 14:48:18;;;;;;;;;;;;;;;;;;5018818;28;19909;-30
2022/09/13 14:50:44;;;;;;;;;;;;;;;;;;5017752;28;19953;-30
2022/09/13 14:53:10;;;;;;;;;;;;;;;;;;5019045;28;19928;-31
2022/09/13 14:55:36;;;;;;;;;;;;;;;;;;5018899;28;19918;-30
2022/09/13 14:58:03;;;;;;;;;;;;;;;;;;5018820;28;19964;-30
2022/09/13 15:00:29;;;;;;;;;;;;;;;;;;5018454;28;19913;-31
2022/09/13 15:02:55;;;;;;;;;;;;;;;;;;5018248;28;19932;-31
2022/09/13 15:05:21;;;;;;;;;;;;;;;;;;5018709;28;19929;-31
2022/09/13 15:07:47;;;;;;;;;;;;;;;;;;5018529;28;19913;-31
2022/09/13 15:10:13;;;;;;;;;;;;;;;;;;5018302;28;19921;-31
2022/09/13 15:12:39;;;;;;;;;;;;;;;;;;5018413;28;19951;-31
2022/09/13 15:15:05;;;;;;;;;;;;;;;;;;5018191;28;19913;-31
2022/09/13 15:17:31;;;;;;;;;;;;;;;;;;5018190;28;19971;-30
2022/09/13 15:19:57;;;;;;;;;;;;;;;;;;5018485;28;19992;-31
2022/09/13 15:22:23;;;;;;;;;;;;;;;;;;5018305;28;20276;-30
2022/09/13 15:24:49;;;;;;;;;;;;;;;;;;5018008;28;19909;-31
2022/09/13 15:27:15;;;;;;;;;;;;;;;;;;5018275;28;19924;-30
2022/09/13 15:29:41;;;;;;;;;;;;;;;;;;5018039;28;20240;-31
2022/09/13 15:32:07;;;;;;;;;;;;;;;;;;5017824;28;20241;-31
2022/09/13 15:34:33;;;;;;;;;;;;;;;;;;5018191;28;19918;-31
2022/09/13 15:36:59;;;;;;;;;;;;;;;;;;5017848;28;19914;-31
2022/09/13 15:39:25;;;;;;;;;;;;;;;;;;5017755;28;19910;-31
2022/09/13 15:41:51;;;;;;;;;;;;;;;;;;5018162;28;19918;-31
2022/09/13 15:44:17;;;;;;;;;;;;;;;;;;5017677;28;19909;-30
2022/09/13 15:46:43;;;;;;;;;;;;;;;;;;5017609;28;19913;-31
2022/09/13 15:49:09;;;;;;;;;;;;;;;;;;5017588;28;19909;-30
2022/09/13 15:51:35;;;;;;;;;;;;;;;;;;5015123;28;19925;-30
2022/09/13 15:54:01;;;;;;;;;;;;;;;;;;5017734;28;19914;-31
2022/09/13 15:56:27;;;;;;;;;;;;;;;;;;5017701;28;20279;-30
2022/09/13 15:58:53;;;;;;;;;;;;;;;;;;5017349;28;19909;-30
2022/09/13 16:01:19;;;;;;;;;;;;;;;;;;5017466;28;19949;-31
2022/09/13 16:03:45;;;;;;;;;;;;;;;;;;5017176;28;20320;-30
2022/09/13 16:06:11;;;;;;;;;;;;;;;;;;5017725;28;19956;-30
2022/09/13 16:08:39;;;;;;;;;;;;;;;;;;5017528;28;20294;-30
2022/09/13 16:11:05;;;;;;;;;;;;;;;;;;5017077;28;19956;-30
2022/09/13 16:13:31;;;;;;;;;;;;;;;;;;5017076;28;19918;-30
2022/09/13 16:15:57;;;;;;;;;;;;;;;;;;5017237;28;19921;-30
2022/09/13 16:18:23;;;;;;;;;;;;;;;;;;5017116;28;20295;-30
2022/09/13 16:20:49;;;;;;;;;;;;;;;;;;5017325;28;20000;-29
2022/09/13 16:23:15;;;;;;;;;;;;;;;;;;5017092;28;20288;-30
2022/09/13 16:25:41;;;;;;;;;;;;;;;;;;5016859;28;19932;-30
2022/09/13 16:28:07;;;;;;;;;;;;;;;;;;5016856;28;19963;-30
2022/09/13 16:30:33;;;;;;;;;;;;;;;;;;5017084;28;19917;-31
2022/09/13 16:32:59;;;;;;;;;;;;;;;;;;5016842;28;19909;-30
2022/09/13 16:35:25;;;;;;;;;;;;;;;;;;5017039;28;20352;-30
2022/09/13 16:37:51;;;;;;;;;;;;;;;;;;5016855;28;19949;-30